sensor_id;sensor_type;location;lat;lon;timestamp;pressure;altitude;pressure_sealevel;temperature;humidity
61014;BME280;46899;47.542;19.082;2023-04-26T00:02:38;99776.22;;;8.42;100.00
61014;BME280;46899;47.542;19.082;2023-04-26T00:05:41;99780.44;;;8.45;100.00
61014;BME280;46899;47.542;19.082;2023-04-26T00:08:44;99784.00;;;8.42;100.00
61014;BME280;46899;47.542;19.082;2023-04-26T00:11:47;99786.34;;;8.48;100.00
61014;BME280;46899;47.542;19.082;2023-04-26T00:14:49;99793.31;;;8.48;100.00
61014;BME280;46899;47.542;19.082;2023-04-26T00:17:52;99792.50;;;8.46;100.00
61014;BME280;46899;47.542;19.082;2023-04-26T00:20:54;99786.50;;;8.44;100.00
61014;BME280;46899;47.542;19.082;2023-04-26T00:23:57;99791.75;;;8.42;100.00
61014;BME280;46899;47.542;19.082;2023-04-26T00:26:59;99794.19;;;8.47;100.00
61014;BME280;46899;47.542;19.082;2023-04-26T00:30:03;99802.75;;;8.49;100.00
61014;BME280;46899;47.542;19.082;2023-04-26T00:33:05;99811.47;;;8.48;100.00
61014;BME280;46899;47.542;19.082;2023-04-26T00:36:08;99803.72;;;8.46;100.00
61014;BME280;46899;47.542;19.082;2023-04-26T00:39:11;99801.13;;;8.46;100.00
61014;BME280;46899;47.542;19.082;2023-04-26T00:42:14;99809.13;;;8.40;100.00
61014;BME280;46899;47.542;19.082;2023-04-26T00:45:16;99817.06;;;8.36;100.00
61014;BME280;46899;47.542;19.082;2023-04-26T00:48:19;99821.31;;;8.37;100.00
61014;BME280;46899;47.542;19.082;2023-04-26T00:51:22;99824.16;;;8.31;100.00
61014;BME280;46899;47.542;19.082;2023-04-26T00:54:24;99823.56;;;8.21;100.00
61014;BME280;46899;47.542;19.082;2023-04-26T00:57:27;99819.56;;;8.12;100.00
61014;BME280;46899;47.542;19.082;2023-04-26T01:00:30;99826.72;;;8.04;100.00
61014;BME280;46899;47.542;19.082;2023-04-26T01:03:33;99829.56;;;7.97;100.00
61014;BME280;46899;47.542;19.082;2023-04-26T01:06:36;99824.47;;;7.94;100.00
61014;BME280;46899;47.542;19.082;2023-04-26T01:09:39;99834.41;;;7.81;100.00
61014;BME280;46899;47.542;19.082;2023-04-26T01:12:42;99832.13;;;7.72;100.00
61014;BME280;46899;47.542;19.082;2023-04-26T01:15:45;99835.16;;;7.57;100.00
61014;BME280;46899;47.542;19.082;2023-04-26T01:18:51;99835.97;;;7.59;100.00
61014;BME280;46899;47.542;19.082;2023-04-26T01:21:55;99832.50;;;7.60;100.00
61014;BME280;46899;47.542;19.082;2023-04-26T01:24:58;99838.56;;;7.59;100.00
61014;BME280;46899;47.542;19.082;2023-04-26T01:28:00;99835.97;;;7.59;100.00
61014;BME280;46899;47.542;19.082;2023-04-26T01:31:03;99833.66;;;7.50;100.00
61014;BME280;46899;47.542;19.082;2023-04-26T01:34:06;99845.91;;;7.45;100.00
61014;BME280;46899;47.542;19.082;2023-04-26T01:37:08;99844.22;;;7.44;100.00
61014;BME280;46899;47.542;19.082;2023-04-26T01:40:11;99843.44;;;7.40;100.00
61014;BME280;46899;47.542;19.082;2023-04-26T01:43:14;99854.66;;;7.41;100.00
61014;BME280;46899;47.542;19.082;2023-04-26T01:46:16;99852.88;;;7.43;100.00
61014;BME280;46899;47.542;19.082;2023-04-26T01:49:20;99857.25;;;7.41;100.00
61014;BME280;46899;47.542;19.082;2023-04-26T01:52:22;99854.75;;;7.38;100.00
61014;BME280;46899;47.542;19.082;2023-04-26T01:55:26;99859.06;;;7.37;100.00
61014;BME280;46899;47.542;19.082;2023-04-26T01:58:28;99856.53;;;7.36;100.00
61014;BME280;46899;47.542;19.082;2023-04-26T02:01:31;99863.41;;;7.37;100.00
61014;BME280;46899;47.542;19.082;2023-04-26T02:04:34;99864.22;;;7.39;100.00
61014;BME280;46899;47.542;19.082;2023-04-26T02:07:36;99860.00;;;7.35;100.00
61014;BME280;46899;47.542;19.082;2023-04-26T02:10:40;99870.25;;;7.38;100.00
61014;BME280;46899;47.542;19.082;2023-04-26T02:13:43;99867.66;;;7.39;100.00
61014;BME280;46899;47.542;19.082;2023-04-26T02:16:45;99870.34;;;7.35;100.00
61014;BME280;46899;47.542;19.082;2023-04-26T02:19:48;99866.78;;;7.39;100.00
61014;BME280;46899;47.542;19.082;2023-04-26T02:22:51;99864.91;;;7.44;100.00
61014;BME280;46899;47.542;19.082;2023-04-26T02:25:53;99875.12;;;7.48;100.00
61014;BME280;46899;47.542;19.082;2023-04-26T02:28:56;99879.37;;;7.51;100.00
61014;BME280;46899;47.542;19.082;2023-04-26T02:31:59;99879.31;;;7.52;100.00
61014;BME280;46899;47.542;19.082;2023-04-26T02:35:02;99882.84;;;7.50;100.00
61014;BME280;46899;47.542;19.082;2023-04-26T02:38:04;99878.09;;;7.36;100.00
61014;BME280;46899;47.542;19.082;2023-04-26T02:41:07;99874.00;;;7.28;100.00
61014;BME280;46899;47.542;19.082;2023-04-26T02:44:09;99882.59;;;7.30;100.00
61014;BME280;46899;47.542;19.082;2023-04-26T02:47:12;99872.37;;;7.25;100.00
61014;BME280;46899;47.542;19.082;2023-04-26T02:50:15;99881.22;;;7.18;100.00
61014;BME280;46899;47.542;19.082;2023-04-26T02:53:18;99881.09;;;7.23;100.00
61014;BME280;46899;47.542;19.082;2023-04-26T02:56:20;99886.25;;;7.23;100.00
61014;BME280;46899;47.542;19.082;2023-04-26T02:59:23;99892.19;;;7.26;100.00
61014;BME280;46899;47.542;19.082;2023-04-26T03:02:25;99896.28;;;7.33;100.00
61014;BME280;46899;47.542;19.082;2023-04-26T03:05:28;99903.28;;;7.30;100.00
61014;BME280;46899;47.542;19.082;2023-04-26T03:08:31;99915.47;;;7.26;100.00
61014;BME280;46899;47.542;19.082;2023-04-26T03:11:36;99915.31;;;7.31;100.00
61014;BME280;46899;47.542;19.082;2023-04-26T03:14:39;99925.94;;;7.22;100.00
61014;BME280;46899;47.542;19.082;2023-04-26T03:17:41;99926.13;;;7.16;100.00
61014;BME280;46899;47.542;19.082;2023-04-26T03:20:45;99933.75;;;7.20;100.00
61014;BME280;46899;47.542;19.082;2023-04-26T03:23:48;99933.66;;;7.23;100.00
61014;BME280;46899;47.542;19.082;2023-04-26T03:26:51;99944.12;;;7.19;100.00
61014;BME280;46899;47.542;19.082;2023-04-26T03:29:54;99936.34;;;7.20;100.00
61014;BME280;46899;47.542;19.082;2023-04-26T03:32:56;99952.94;;;7.12;100.00
61014;BME280;46899;47.542;19.082;2023-04-26T03:35:59;99954.00;;;7.05;100.00
61014;BME280;46899;47.542;19.082;2023-04-26T03:39:02;99950.00;;;6.95;100.00
61014;BME280;46899;47.542;19.082;2023-04-26T03:42:06;99960.34;;;6.93;100.00
61014;BME280;46899;47.542;19.082;2023-04-26T03:45:08;99964.00;;;6.86;100.00
61014;BME280;46899;47.542;19.082;2023-04-26T03:48:11;99964.16;;;6.80;100.00
61014;BME280;46899;47.542;19.082;2023-04-26T03:51:13;99957.91;;;6.88;100.00
61014;BME280;46899;47.542;19.082;2023-04-26T03:54:16;99963.13;;;6.85;100.00
61014;BME280;46899;47.542;19.082;2023-04-26T03:57:19;99969.41;;;6.77;100.00
61014;BME280;46899;47.542;19.082;2023-04-26T04:00:22;99969.47;;;6.74;100.00
61014;BME280;46899;47.542;19.082;2023-04-26T04:03:25;99973.00;;;6.71;100.00
61014;BME280;46899;47.542;19.082;2023-04-26T04:06:29;99982.56;;;6.68;100.00
61014;BME280;46899;47.542;19.082;2023-04-26T04:09:32;99980.03;;;6.66;100.00
61014;BME280;46899;47.542;19.082;2023-04-26T04:12:35;99981.47;;;6.78;100.00
61014;BME280;46899;47.542;19.082;2023-04-26T04:15:38;99991.88;;;6.75;100.00
61014;BME280;46899;47.542;19.082;2023-04-26T04:18:40;99996.75;;;6.85;100.00
61014;BME280;46899;47.542;19.082;2023-04-26T04:21:43;99982.78;;;6.93;100.00
61014;BME280;46899;47.542;19.082;2023-04-26T04:24:46;99986.16;;;6.96;100.00
61014;BME280;46899;47.542;19.082;2023-04-26T04:27:49;99973.94;;;7.01;100.00
61014;BME280;46899;47.542;19.082;2023-04-26T04:30:53;99967.75;;;7.07;100.00
61014;BME280;46899;47.542;19.082;2023-04-26T04:33:55;99988.09;;;7.19;99.96
61014;BME280;46899;47.542;19.082;2023-04-26T04:36:58;100003.37;;;7.28;98.19
61014;BME280;46899;47.542;19.082;2023-04-26T04:40:01;100006.69;;;7.33;98.24
61014;BME280;46899;47.542;19.082;2023-04-26T04:43:08;100018.50;;;7.43;97.26
61014;BME280;46899;47.542;19.082;2023-04-26T04:46:11;100018.31;;;7.49;96.85
61014;BME280;46899;47.542;19.082;2023-04-26T04:49:14;100023.56;;;7.47;96.42
61014;BME280;46899;47.542;19.082;2023-04-26T04:52:17;100021.91;;;7.45;95.70
61014;BME280;46899;47.542;19.082;2023-04-26T04:55:22;100030.56;;;7.44;97.14
61014;BME280;46899;47.542;19.082;2023-04-26T04:58:25;100038.94;;;7.52;97.47
61014;BME280;46899;47.542;19.082;2023-04-26T05:01:30;100041.59;;;7.50;98.23
61014;BME280;46899;47.542;19.082;2023-04-26T05:04:34;100039.03;;;7.49;99.69
61014;BME280;46899;47.542;19.082;2023-04-26T05:07:36;100053.75;;;7.47;100.00
61014;BME280;46899;47.542;19.082;2023-04-26T05:10:40;100056.59;;;7.38;100.00
61014;BME280;46899;47.542;19.082;2023-04-26T05:13:42;100058.19;;;7.43;100.00
61014;BME280;46899;47.542;19.082;2023-04-26T05:16:45;100051.16;;;7.47;100.00
61014;BME280;46899;47.542;19.082;2023-04-26T05:19:48;100058.59;;;7.59;100.00
61014;BME280;46899;47.542;19.082;2023-04-26T05:22:51;100058.53;;;7.62;100.00
61014;BME280;46899;47.542;19.082;2023-04-26T05:25:53;100064.25;;;7.73;100.00
61014;BME280;46899;47.542;19.082;2023-04-26T05:28:58;100061.44;;;7.81;99.00
61014;BME280;46899;47.542;19.082;2023-04-26T05:32:01;100068.94;;;7.90;98.74
61014;BME280;46899;47.542;19.082;2023-04-26T05:35:04;100067.66;;;8.04;96.58
61014;BME280;46899;47.542;19.082;2023-04-26T05:38:07;100071.00;;;8.08;96.96
61014;BME280;46899;47.542;19.082;2023-04-26T05:41:10;100068.03;;;8.21;92.20
61014;BME280;46899;47.542;19.082;2023-04-26T05:44:13;100073.09;;;8.24;91.70
61014;BME280;46899;47.542;19.082;2023-04-26T05:47:18;100074.56;;;8.35;91.00
61014;BME280;46899;47.542;19.082;2023-04-26T05:50:21;100075.28;;;8.40;90.73
61014;BME280;46899;47.542;19.082;2023-04-26T05:53:24;100083.69;;;8.46;88.37
61014;BME280;46899;47.542;19.082;2023-04-26T05:56:27;100087.22;;;8.45;87.41
61014;BME280;46899;47.542;19.082;2023-04-26T05:59:30;100088.84;;;8.48;87.00
61014;BME280;46899;47.542;19.082;2023-04-26T06:02:34;100095.16;;;8.67;84.76
61014;BME280;46899;47.542;19.082;2023-04-26T06:05:37;100091.63;;;9.22;84.53
61014;BME280;46899;47.542;19.082;2023-04-26T06:08:41;100094.87;;;10.01;77.05
61014;BME280;46899;47.542;19.082;2023-04-26T06:11:44;100096.91;;;10.39;74.63
61014;BME280;46899;47.542;19.082;2023-04-26T06:14:47;100099.78;;;10.55;73.73
61014;BME280;46899;47.542;19.082;2023-04-26T06:17:51;100108.03;;;11.08;70.46
61014;BME280;46899;47.542;19.082;2023-04-26T06:20:54;100108.13;;;11.68;67.75
61014;BME280;46899;47.542;19.082;2023-04-26T06:23:57;100112.81;;;11.99;64.67
61014;BME280;46899;47.542;19.082;2023-04-26T06:27:00;100110.38;;;12.52;62.85
61014;BME280;46899;47.542;19.082;2023-04-26T06:30:04;100113.12;;;12.49;60.41
61014;BME280;46899;47.542;19.082;2023-04-26T06:33:08;100120.16;;;13.37;57.21
61014;BME280;46899;47.542;19.082;2023-04-26T06:36:13;100111.81;;;14.92;50.72
61014;BME280;46899;47.542;19.082;2023-04-26T06:39:15;100099.72;;;16.07;47.00
61014;BME280;46899;47.542;19.082;2023-04-26T06:42:19;100106.03;;;19.48;38.71
61014;BME280;46899;47.542;19.082;2023-04-26T06:45:22;100105.72;;;21.28;34.45
61014;BME280;46899;47.542;19.082;2023-04-26T06:48:25;100099.56;;;23.66;29.79
61014;BME280;46899;47.542;19.082;2023-04-26T06:51:28;100105.69;;;25.04;27.29
61014;BME280;46899;47.542;19.082;2023-04-26T06:54:31;100105.91;;;25.11;27.20
61014;BME280;46899;47.542;19.082;2023-04-26T06:57:37;100105.31;;;26.29;25.31
61014;BME280;46899;47.542;19.082;2023-04-26T07:00:40;100084.37;;;27.00;23.74
61014;BME280;46899;47.542;19.082;2023-04-26T07:03:42;100118.44;;;23.54;25.63
61014;BME280;46899;47.542;19.082;2023-04-26T07:06:45;100111.25;;;24.39;23.59
61014;BME280;46899;47.542;19.082;2023-04-26T07:09:48;100118.72;;;25.86;22.34
61014;BME280;46899;47.542;19.082;2023-04-26T07:12:51;100102.81;;;26.28;20.95
61014;BME280;46899;47.542;19.082;2023-04-26T07:15:53;100118.81;;;26.28;21.38
61014;BME280;46899;47.542;19.082;2023-04-26T07:18:56;100116.59;;;27.07;20.87
61014;BME280;46899;47.542;19.082;2023-04-26T07:22:02;100117.03;;;26.78;20.68
61014;BME280;46899;47.542;19.082;2023-04-26T07:25:05;100114.13;;;27.86;20.37
61014;BME280;46899;47.542;19.082;2023-04-26T07:28:08;100115.50;;;27.74;19.36
61014;BME280;46899;47.542;19.082;2023-04-26T07:31:11;100115.37;;;29.00;18.17
61014;BME280;46899;47.542;19.082;2023-04-26T07:34:13;100122.06;;;29.35;17.72
61014;BME280;46899;47.542;19.082;2023-04-26T07:37:16;100132.84;;;27.78;18.48
61014;BME280;46899;47.542;19.082;2023-04-26T07:40:19;100143.69;;;27.28;18.67
61014;BME280;46899;47.542;19.082;2023-04-26T07:43:24;100136.19;;;27.80;17.92
61014;BME280;46899;47.542;19.082;2023-04-26T07:46:27;100137.75;;;26.84;19.19
61014;BME280;46899;47.542;19.082;2023-04-26T07:49:29;100143.62;;;26.96;19.05
61014;BME280;46899;47.542;19.082;2023-04-26T07:52:32;100145.72;;;26.76;19.59
61014;BME280;46899;47.542;19.082;2023-04-26T07:55:35;100149.34;;;26.08;19.61
61014;BME280;46899;47.542;19.082;2023-04-26T07:58:38;100160.34;;;25.61;19.51
61014;BME280;46899;47.542;19.082;2023-04-26T08:01:41;100152.09;;;22.26;23.40
61014;BME280;46899;47.542;19.082;2023-04-26T08:04:47;100151.19;;;20.02;28.89
61014;BME280;46899;47.542;19.082;2023-04-26T08:07:54;100146.81;;;18.35;29.54
61014;BME280;46899;47.542;19.082;2023-04-26T08:10:57;100160.19;;;18.44;29.49
61014;BME280;46899;47.542;19.082;2023-04-26T08:13:59;100152.53;;;19.14;27.94
61014;BME280;46899;47.542;19.082;2023-04-26T08:17:02;100152.75;;;19.35;28.65
61014;BME280;46899;47.542;19.082;2023-04-26T08:20:05;100154.50;;;19.23;28.87
61014;BME280;46899;47.542;19.082;2023-04-26T08:23:09;100161.19;;;22.03;25.64
61014;BME280;46899;47.542;19.082;2023-04-26T08:26:11;100174.88;;;23.27;22.92
61014;BME280;46899;47.542;19.082;2023-04-26T08:29:14;100182.84;;;23.27;23.08
61014;BME280;46899;47.542;19.082;2023-04-26T08:32:17;100177.38;;;24.24;21.69
61014;BME280;46899;47.542;19.082;2023-04-26T08:35:26;100172.16;;;25.76;19.82
61014;BME280;46899;47.542;19.082;2023-04-26T08:38:28;100181.09;;;26.11;19.83
61014;BME280;46899;47.542;19.082;2023-04-26T08:41:35;100180.34;;;25.30;19.87
61014;BME280;46899;47.542;19.082;2023-04-26T08:44:38;100184.59;;;23.76;21.67
61014;BME280;46899;47.542;19.082;2023-04-26T08:47:43;100178.19;;;22.30;23.77
61014;BME280;46899;47.542;19.082;2023-04-26T08:50:47;100180.06;;;21.89;24.71
61014;BME280;46899;47.542;19.082;2023-04-26T08:53:50;100187.84;;;20.62;26.53
61014;BME280;46899;47.542;19.082;2023-04-26T08:56:55;100188.78;;;20.94;26.00
61014;BME280;46899;47.542;19.082;2023-04-26T09:00:04;100188.34;;;20.22;27.05
61014;BME280;46899;47.542;19.082;2023-04-26T09:03:07;100194.06;;;18.51;29.40
61014;BME280;46899;47.542;19.082;2023-04-26T09:06:10;100188.12;;;17.84;30.65
61014;BME280;46899;47.542;19.082;2023-04-26T09:09:12;100188.88;;;17.20;30.47
61014;BME280;46899;47.542;19.082;2023-04-26T09:12:18;100189.44;;;16.70;32.23
61014;BME280;46899;47.542;19.082;2023-04-26T09:15:22;100193.84;;;16.27;32.27
61014;BME280;46899;47.542;19.082;2023-04-26T09:18:25;100197.22;;;15.71;33.65
61014;BME280;46899;47.542;19.082;2023-04-26T09:21:27;100193.37;;;15.63;33.67
61014;BME280;46899;47.542;19.082;2023-04-26T09:24:47;100177.88;;;15.13;33.31
61014;BME280;46899;47.542;19.082;2023-04-26T09:27:49;100188.63;;;14.93;33.27
61014;BME280;46899;47.542;19.082;2023-04-26T09:30:52;100177.59;;;15.18;33.65
61014;BME280;46899;47.542;19.082;2023-04-26T09:33:58;100177.06;;;15.42;34.07
61014;BME280;46899;47.542;19.082;2023-04-26T09:37:01;100167.03;;;15.35;33.16
61014;BME280;46899;47.542;19.082;2023-04-26T09:40:06;100182.34;;;15.11;33.93
61014;BME280;46899;47.542;19.082;2023-04-26T09:43:12;100197.25;;;14.95;34.12
61014;BME280;46899;47.542;19.082;2023-04-26T09:46:21;100186.66;;;15.28;33.63
61014;BME280;46899;47.542;19.082;2023-04-26T09:49:25;100172.72;;;15.57;32.48
61014;BME280;46899;47.542;19.082;2023-04-26T09:52:28;100170.97;;;15.42;32.79
61014;BME280;46899;47.542;19.082;2023-04-26T09:55:31;100176.63;;;15.50;33.12
61014;BME280;46899;47.542;19.082;2023-04-26T09:58:37;100178.50;;;15.48;33.24
61014;BME280;46899;47.542;19.082;2023-04-26T10:01:40;100182.50;;;15.69;33.02
61014;BME280;46899;47.542;19.082;2023-04-26T10:04:44;100178.56;;;15.62;32.75
61014;BME280;46899;47.542;19.082;2023-04-26T10:07:48;100180.97;;;15.95;33.39
61014;BME280;46899;47.542;19.082;2023-04-26T10:10:52;100170.88;;;16.03;31.24
61014;BME280;46899;47.542;19.082;2023-04-26T10:13:55;100176.03;;;16.32;32.82
61014;BME280;46899;47.542;19.082;2023-04-26T10:16:58;100174.91;;;16.08;31.94
61014;BME280;46899;47.542;19.082;2023-04-26T10:20:00;100168.53;;;16.40;32.53
61014;BME280;46899;47.542;19.082;2023-04-26T10:23:12;100173.97;;;16.23;31.31
61014;BME280;46899;47.542;19.082;2023-04-26T10:36:12;100186.63;;;16.17;31.02
61014;BME280;46899;47.542;19.082;2023-04-26T10:39:18;100187.06;;;15.51;31.85
61014;BME280;46899;47.542;19.082;2023-04-26T10:42:25;100187.03;;;15.81;31.09
61014;BME280;46899;47.542;19.082;2023-04-26T10:45:29;100188.53;;;15.85;31.01
61014;BME280;46899;47.542;19.082;2023-04-26T10:48:32;100184.00;;;15.59;30.48
61014;BME280;46899;47.542;19.082;2023-04-26T10:51:35;100192.13;;;15.84;29.35
61014;BME280;46899;47.542;19.082;2023-04-26T10:54:55;100180.31;;;15.91;29.50
61014;BME280;46899;47.542;19.082;2023-04-26T10:57:58;100177.53;;;15.94;29.34
61014;BME280;46899;47.542;19.082;2023-04-26T11:01:18;100187.72;;;15.85;29.85
61014;BME280;46899;47.542;19.082;2023-04-26T11:04:22;100185.87;;;15.71;29.88
61014;BME280;46899;47.542;19.082;2023-04-26T11:07:37;100177.06;;;15.42;30.28
61014;BME280;46899;47.542;19.082;2023-04-26T11:10:40;100179.50;;;15.00;32.40
61014;BME280;46899;47.542;19.082;2023-04-26T11:13:43;100163.53;;;15.04;32.11
61014;BME280;46899;47.542;19.082;2023-04-26T11:16:46;100181.38;;;15.43;31.32
61014;BME280;46899;47.542;19.082;2023-04-26T11:19:49;100173.56;;;15.87;31.01
61014;BME280;46899;47.542;19.082;2023-04-26T11:22:52;100180.53;;;16.44;29.93
61014;BME280;46899;47.542;19.082;2023-04-26T11:25:58;100172.47;;;16.05;29.62
61014;BME280;46899;47.542;19.082;2023-04-26T11:29:06;100178.22;;;15.07;31.59
61014;BME280;46899;47.542;19.082;2023-04-26T11:32:27;100170.13;;;14.65;34.21
61014;BME280;46899;47.542;19.082;2023-04-26T11:35:37;100182.78;;;14.57;34.13
61014;BME280;46899;47.542;19.082;2023-04-26T11:38:40;100186.50;;;14.68;33.95
61014;BME280;46899;47.542;19.082;2023-04-26T11:41:42;100188.28;;;14.83;33.62
61014;BME280;46899;47.542;19.082;2023-04-26T11:44:45;100192.75;;;15.13;32.49
61014;BME280;46899;47.542;19.082;2023-04-26T11:47:49;100187.97;;;15.66;32.44
61014;BME280;46899;47.542;19.082;2023-04-26T11:50:52;100198.81;;;16.04;31.74
61014;BME280;46899;47.542;19.082;2023-04-26T11:53:57;100193.59;;;16.18;30.76
61014;BME280;46899;47.542;19.082;2023-04-26T11:57:12;100190.72;;;15.93;31.35
61014;BME280;46899;47.542;19.082;2023-04-26T12:00:18;100189.87;;;15.33;32.38
61014;BME280;46899;47.542;19.082;2023-04-26T12:03:21;100193.34;;;15.93;31.99
61014;BME280;46899;47.542;19.082;2023-04-26T12:06:26;100196.91;;;15.92;32.00
61014;BME280;46899;47.542;19.082;2023-04-26T12:09:30;100191.31;;;15.68;30.99
61014;BME280;46899;47.542;19.082;2023-04-26T12:12:33;100193.22;;;15.50;31.24
61014;BME280;46899;47.542;19.082;2023-04-26T12:15:35;100192.75;;;15.28;31.86
61014;BME280;46899;47.542;19.082;2023-04-26T12:18:38;100182.44;;;15.25;30.54
61014;BME280;46899;47.542;19.082;2023-04-26T12:21:41;100183.63;;;15.04;31.15
61014;BME280;46899;47.542;19.082;2023-04-26T12:24:44;100194.69;;;14.78;32.55
61014;BME280;46899;47.542;19.082;2023-04-26T12:27:49;100199.22;;;14.26;32.07
61014;BME280;46899;47.542;19.082;2023-04-26T12:30:51;100200.28;;;14.39;32.00
61014;BME280;46899;47.542;19.082;2023-04-26T12:33:54;100200.66;;;14.49;32.24
61014;BME280;46899;47.542;19.082;2023-04-26T12:36:56;100197.72;;;14.55;31.67
61014;BME280;46899;47.542;19.082;2023-04-26T12:39:59;100197.22;;;14.48;32.30
61014;BME280;46899;47.542;19.082;2023-04-26T12:43:02;100201.53;;;14.65;32.32
61014;BME280;46899;47.542;19.082;2023-04-26T12:46:04;100190.53;;;15.05;31.10
61014;BME280;46899;47.542;19.082;2023-04-26T12:49:08;100195.91;;;14.88;29.35
61014;BME280;46899;47.542;19.082;2023-04-26T12:52:11;100201.00;;;14.58;31.46
61014;BME280;46899;47.542;19.082;2023-04-26T12:55:13;100195.41;;;14.33;32.46
61014;BME280;46899;47.542;19.082;2023-04-26T12:58:16;100199.84;;;14.48;33.77
61014;BME280;46899;47.542;19.082;2023-04-26T13:01:19;100200.13;;;14.90;33.33
61014;BME280;46899;47.542;19.082;2023-04-26T13:04:22;100194.13;;;14.88;32.45
61014;BME280;46899;47.542;19.082;2023-04-26T13:07:25;100196.44;;;15.40;32.07
61014;BME280;46899;47.542;19.082;2023-04-26T13:10:28;100206.81;;;15.57;31.14
61014;BME280;46899;47.542;19.082;2023-04-26T13:13:31;100220.28;;;14.73;31.22
61014;BME280;46899;47.542;19.082;2023-04-26T13:16:44;100224.03;;;14.36;31.48
61014;BME280;46899;47.542;19.082;2023-04-26T13:19:47;100202.34;;;14.34;30.97
61014;BME280;46899;47.542;19.082;2023-04-26T13:22:50;100211.06;;;14.66;30.92
61014;BME280;46899;47.542;19.082;2023-04-26T13:25:52;100206.87;;;14.94;31.67
61014;BME280;46899;47.542;19.082;2023-04-26T13:28:55;100217.09;;;15.46;31.47
61014;BME280;46899;47.542;19.082;2023-04-26T13:31:57;100215.75;;;15.54;31.04
61014;BME280;46899;47.542;19.082;2023-04-26T13:35:04;100218.09;;;15.28;31.10
61014;BME280;46899;47.542;19.082;2023-04-26T13:38:07;100223.94;;;15.33;30.73
61014;BME280;46899;47.542;19.082;2023-04-26T13:41:09;100208.31;;;15.47;30.79
61014;BME280;46899;47.542;19.082;2023-04-26T13:44:12;100215.66;;;15.56;30.69
61014;BME280;46899;47.542;19.082;2023-04-26T13:47:17;100219.72;;;15.15;32.00
61014;BME280;46899;47.542;19.082;2023-04-26T13:50:19;100226.78;;;14.66;32.63
61014;BME280;46899;47.542;19.082;2023-04-26T13:53:22;100232.03;;;14.33;33.77
61014;BME280;46899;47.542;19.082;2023-04-26T13:56:24;100240.28;;;14.08;34.49
61014;BME280;46899;47.542;19.082;2023-04-26T13:59:27;100245.91;;;14.01;34.19
61014;BME280;46899;47.542;19.082;2023-04-26T14:02:30;100244.19;;;13.83;34.53
61014;BME280;46899;47.542;19.082;2023-04-26T14:05:33;100242.50;;;13.64;33.42
61014;BME280;46899;47.542;19.082;2023-04-26T14:08:35;100242.50;;;13.64;33.46
61014;BME280;46899;47.542;19.082;2023-04-26T14:11:38;100248.50;;;13.84;34.43
61014;BME280;46899;47.542;19.082;2023-04-26T14:14:41;100242.38;;;13.85;33.78
61014;BME280;46899;47.542;19.082;2023-04-26T14:17:43;100241.81;;;13.78;34.26
61014;BME280;46899;47.542;19.082;2023-04-26T14:20:48;100246.19;;;13.60;35.46
61014;BME280;46899;47.542;19.082;2023-04-26T14:23:51;100246.66;;;13.51;35.53
61014;BME280;46899;47.542;19.082;2023-04-26T14:26:53;100252.69;;;13.52;34.74
61014;BME280;46899;47.542;19.082;2023-04-26T14:29:56;100249.22;;;13.34;34.32
61014;BME280;46899;47.542;19.082;2023-04-26T14:32:58;100258.94;;;13.49;34.62
61014;BME280;46899;47.542;19.082;2023-04-26T14:36:01;100253.59;;;13.87;33.83
61014;BME280;46899;47.542;19.082;2023-04-26T14:39:03;100252.28;;;13.95;33.26
61014;BME280;46899;47.542;19.082;2023-04-26T14:42:07;100252.34;;;13.59;32.97
61014;BME280;46899;47.542;19.082;2023-04-26T14:45:10;100259.72;;;13.51;33.61
61014;BME280;46899;47.542;19.082;2023-04-26T14:48:12;100260.56;;;13.16;32.62
61014;BME280;46899;47.542;19.082;2023-04-26T14:51:15;100259.12;;;12.90;33.60
61014;BME280;46899;47.542;19.082;2023-04-26T14:54:18;100261.78;;;12.70;35.17
61014;BME280;46899;47.542;19.082;2023-04-26T14:57:20;100266.44;;;12.44;37.36
61014;BME280;46899;47.542;19.082;2023-04-26T15:00:24;100263.75;;;12.26;38.02
61014;BME280;46899;47.542;19.082;2023-04-26T15:03:26;100268.88;;;12.28;36.85
61014;BME280;46899;47.542;19.082;2023-04-26T15:06:29;100271.97;;;12.17;36.98
61014;BME280;46899;47.542;19.082;2023-04-26T15:09:35;100278.47;;;12.27;37.21
61014;BME280;46899;47.542;19.082;2023-04-26T15:12:38;100267.25;;;12.46;37.17
61014;BME280;46899;47.542;19.082;2023-04-26T15:15:40;100285.88;;;12.57;36.40
61014;BME280;46899;47.542;19.082;2023-04-26T15:18:43;100274.34;;;12.62;36.84
61014;BME280;46899;47.542;19.082;2023-04-26T15:21:45;100275.88;;;12.66;36.96
61014;BME280;46899;47.542;19.082;2023-04-26T15:24:48;100275.88;;;12.66;37.22
61014;BME280;46899;47.542;19.082;2023-04-26T15:27:52;100283.50;;;12.71;37.44
61014;BME280;46899;47.542;19.082;2023-04-26T15:31:01;100289.69;;;12.50;37.32
61014;BME280;46899;47.542;19.082;2023-04-26T15:34:04;100292.16;;;12.32;37.26
61014;BME280;46899;47.542;19.082;2023-04-26T15:37:07;100294.91;;;12.29;37.53
61014;BME280;46899;47.542;19.082;2023-04-26T15:40:09;100296.06;;;12.22;37.44
61014;BME280;46899;47.542;19.082;2023-04-26T15:43:14;100286.44;;;12.24;36.44
61014;BME280;46899;47.542;19.082;2023-04-26T15:46:17;100287.16;;;12.28;36.58
61014;BME280;46899;47.542;19.082;2023-04-26T15:49:21;100292.66;;;12.61;36.35
61014;BME280;46899;47.542;19.082;2023-04-26T15:52:24;100289.81;;;12.85;35.70
61014;BME280;46899;47.542;19.082;2023-04-26T15:55:27;100277.44;;;12.89;35.12
61014;BME280;46899;47.542;19.082;2023-04-26T15:58:29;100279.22;;;12.88;35.62
61014;BME280;46899;47.542;19.082;2023-04-26T16:01:32;100284.50;;;12.87;35.84